Time;durP1;ratioP1;P1;durP2;ratioP2;P2;SDS_P1;SDS_P2;PMS_P1;PMS_P2;Temp;Humidity;BMP_temperature;BMP_pressure;BME280_temperature;BME280_humidity;BME280_pressure;Samples;Min_cycle;Max_cycle;Signal;HPM_P1;HPM_P2
2021/12/15 00:00:30;;;;;;;;;53.50;41.25;;;;;15.41;70.93;102788.25;5082466;27;61964;-78
2021/12/15 00:02:56;;;;;;;;;54.75;42.25;;;;;15.43;71.34;102790.16;5082112;27;61743;-78
2021/12/15 00:05:25;;;;;;;;;57.25;43.25;;;;;15.43;71.04;102787.50;5082428;27;61717;-78
2021/12/15 00:07:57;;;;;;;;;53.75;42.75;;;;;15.48;70.89;102779.81;5081386;28;61946;-78
2021/12/15 00:10:24;;;;;;;;;46.75;40.25;;;;;15.35;69.96;102780.88;5082259;27;61956;-79
2021/12/15 00:12:50;;;;;;;;;62.00;45.00;;;;;15.36;70.26;102788.00;5082124;27;61675;-78
2021/12/15 00:15:17;;;;;;;;;40.00;32.75;;;;;15.33;70.08;102790.44;5080997;28;62049;-78
2021/12/15 00:17:42;;;;;;;;;45.25;33.00;;;;;15.33;70.51;102780.75;5080264;28;63521;-78
2021/12/15 00:20:12;;;;;;;;;46.25;33.00;;;;;15.36;69.95;102782.69;5081592;27;61754;-78
2021/12/15 00:22:38;;;;;;;;;50.25;40.25;;;;;15.37;69.87;102788.91;5080769;27;61871;-78
2021/12/15 00:25:06;;;;;;;;;39.00;34.50;;;;;15.38;70.60;102785.41;5081701;27;62092;-79
2021/12/15 00:27:32;;;;;;;;;41.00;35.50;;;;;15.37;70.37;102780.97;5081560;28;62638;-78
2021/12/15 00:29:58;;;;;;;;;44.25;33.25;;;;;15.36;69.98;102776.47;5081889;28;61972;-78
2021/12/15 00:32:23;;;;;;;;;45.00;38.50;;;;;15.37;69.45;102786.25;5082044;28;61817;-78
2021/12/15 00:34:51;;;;;;;;;36.75;32.25;;;;;15.34;70.36;102776.41;5081990;27;62091;-78
2021/12/15 00:37:18;;;;;;;;;48.75;39.00;;;;;15.36;69.87;102769.47;5081273;28;62589;-78
2021/12/15 00:39:43;;;;;;;;;56.25;38.25;;;;;15.33;69.95;102783.41;5080279;28;62591;-78
2021/12/15 00:42:09;;;;;;;;;42.50;35.50;;;;;15.35;70.32;102772.91;5081773;28;61722;-78
2021/12/15 00:44:36;;;;;;;;;33.75;28.75;;;;;15.37;70.40;102773.03;5081988;27;61893;-78
2021/12/15 00:47:03;;;;;;;;;39.75;35.25;;;;;15.33;70.29;102772.81;5081100;27;61693;-79
2021/12/15 00:49:29;;;;;;;;;38.75;35.00;;;;;15.31;70.08;102782.41;5081665;28;61976;-79
2021/12/15 00:51:55;;;;;;;;;41.00;31.75;;;;;15.32;70.80;102780.69;5081699;27;62294;-78
2021/12/15 00:54:22;;;;;;;;;47.00;32.25;;;;;15.28;70.62;102770.75;5081720;27;61713;-78
2021/12/15 00:56:49;;;;;;;;;44.25;37.75;;;;;15.29;70.71;102783.16;5096374;27;63887;-78
2021/12/15 00:59:15;;;;;;;;;40.25;32.75;;;;;15.29;70.69;102776.13;5076164;28;61993;-78
2021/12/15 01:01:42;;;;;;;;;44.00;38.75;;;;;15.29;70.61;102776.13;5082081;27;61756;-79
2021/12/15 01:04:10;;;;;;;;;42.75;35.00;;;;;15.30;70.50;102774.41;5083588;28;62054;-78
2021/12/15 01:06:38;;;;;;;;;40.50;31.75;;;;;15.30;70.75;102783.25;5083066;28;63686;-79
2021/12/15 01:09:08;;;;;;;;;37.25;33.25;;;;;15.24;70.23;102782.91;5084757;27;61707;-78
2021/12/15 01:19:55;;;;;;;;;49.00;35.50;;;;;15.33;70.69;102779.88;5084789;28;61758;-78
2021/12/15 01:22:32;;;;;;;;;51.50;36.50;;;;;15.35;70.74;102780.88;5100573;27;61992;-78
2021/12/15 01:25:09;;;;;;;;;55.25;35.00;;;;;15.32;70.81;102771.03;5084954;27;62014;-78
2021/12/15 01:27:35;;;;;;;;;43.75;32.00;;;;;15.27;70.81;102766.28;5082912;28;64891;-78
2021/12/15 01:30:01;;;;;;;;;36.25;32.00;;;;;15.26;70.74;102768.03;5084444;27;62039;-78
2021/12/15 01:32:26;;;;;;;;;44.00;36.00;;;;;15.27;70.83;102769.81;5084406;28;61806;-79
2021/12/15 01:34:52;;;;;;;;;40.25;36.50;;;;;15.28;71.03;102771.66;5084936;27;61779;-78
2021/12/15 01:37:17;;;;;;;;;46.75;35.75;;;;;15.31;71.07;102774.47;5083702;28;62532;-78
2021/12/15 01:39:45;;;;;;;;;41.25;35.00;;;;;15.32;70.90;102775.41;5084351;28;61815;-78
2021/12/15 01:42:12;;;;;;;;;45.75;38.75;;;;;15.31;70.72;102771.81;5083106;28;61829;-78
2021/12/15 01:47:23;;;;;;;;;41.00;35.50;;;;;15.33;70.97;102766.63;5083460;28;62296;-78
2021/12/15 01:49:52;;;;;;;;;46.75;38.50;;;;;15.33;70.92;102772.81;5084422;28;61788;-78
2021/12/15 01:52:30;;;;;;;;;45.75;33.75;;;;;15.33;70.05;102780.75;5084207;27;62148;-79
2021/12/15 01:55:04;;;;;;;;;40.00;33.50;;;;;15.32;70.88;102780.69;5084439;27;61820;-79
2021/12/15 01:57:33;;;;;;;;;28.75;27.50;;;;;15.33;70.62;102780.75;5078365;28;63947;-78
2021/12/15 01:59:58;;;;;;;;;55.00;37.75;;;;;15.28;70.37;102782.25;5084181;27;61876;-78
2021/12/15 02:02:26;;;;;;;;;49.50;39.25;;;;;15.24;70.08;102790.84;5082463;28;62179;-79
2021/12/15 02:04:53;;;;;;;;;55.75;40.00;;;;;15.20;70.20;102795.88;5084446;27;61865;-78
2021/12/15 02:07:21;;;;;;;;;43.50;38.25;;;;;15.25;70.51;102797.97;5083382;27;63146;-78
2021/12/15 02:12:25;;;;;;;;;41.75;29.75;;;;;15.27;70.52;102787.44;5083889;27;61806;-78
2021/12/15 02:14:52;;;;;;;;;45.75;30.50;;;;;15.32;70.95;102793.94;5081993;28;61865;-78
2021/12/15 02:17:18;;;;;;;;;46.75;39.00;;;;;15.29;70.61;102801.69;5081655;28;63642;-79
2021/12/15 02:19:45;;;;;;;;;53.25;39.00;;;;;15.31;70.59;102807.97;5082657;28;61948;-78
2021/12/15 02:22:10;;;;;;;;;45.75;38.00;;;;;15.30;70.83;102801.78;5099460;27;61947;-78
2021/12/15 02:24:38;;;;;;;;;43.00;33.00;;;;;15.30;70.91;102803.53;5083887;27;61877;-78
2021/12/15 02:27:05;;;;;;;;;45.00;35.25;;;;;15.28;71.31;102798.13;5083277;28;61782;-78
2021/12/15 02:29:36;;;;;;;;;51.25;40.25;;;;;15.31;71.17;102806.22;5083521;28;61890;-80
2021/12/15 02:32:17;;;;;;;;;49.25;38.25;;;;;15.31;70.44;102802.69;5099056;27;61882;-80
2021/12/15 02:37:27;;;;;;;;;42.00;37.25;;;;;15.23;70.66;102802.25;5082896;28;62379;-79
2021/12/15 02:40:01;;;;;;;;;42.25;34.75;;;;;15.27;71.40;102798.94;5083524;27;61740;-80
2021/12/15 02:42:39;;;;;;;;;40.25;36.50;;;;;15.32;71.37;102800.13;5082289;28;62090;-80
2021/12/15 02:45:08;;;;;;;;;43.75;37.75;;;;;15.28;71.35;102800.78;5083585;27;62107;-79
2021/12/15 02:47:34;;;;;;;;;45.75;37.00;;;;;15.31;71.25;102800.03;5082716;27;63130;-80
2021/12/15 02:50:02;;;;;;;;;41.00;35.25;;;;;15.32;71.06;102797.47;5083428;28;61868;-79
2021/12/15 02:52:27;;;;;;;;;44.25;34.50;;;;;15.30;71.18;102798.22;5083009;27;61872;-80
2021/12/15 02:54:53;;;;;;;;;46.25;36.75;;;;;15.29;70.93;102791.09;5083114;27;61999;-79
2021/12/15 02:57:19;;;;;;;;;41.50;34.75;;;;;15.33;71.50;102787.81;5077382;28;63638;-79
2021/12/15 03:05:16;;;;;;;;;42.50;36.00;;;;;15.32;71.29;102797.47;5083568;28;61911;-79
2021/12/15 03:07:50;;;;;;;;;51.00;38.00;;;;;15.31;70.95;102793.00;5082756;27;61670;-80
2021/12/15 03:15:49;;;;;;;;;60.75;41.75;;;;;15.27;70.54;102791.00;5083174;28;61746;-79
2021/12/15 03:18:23;;;;;;;;;46.75;37.25;;;;;15.30;71.44;102785.91;5082228;27;61848;-79
2021/12/15 03:20:56;;;;;;;;;47.50;37.75;;;;;15.35;70.96;102794.09;5083099;28;61929;-79
2021/12/15 03:23:36;;;;;;;;;43.75;35.50;;;;;15.34;71.14;102789.63;5081416;28;61961;-79
2021/12/15 03:26:02;;;;;;;;;42.00;35.00;;;;;15.33;71.28;102787.81;5082744;27;61993;-79
2021/12/15 03:34:37;;;;;;;;;36.75;34.00;;;;;15.35;70.89;102796.75;5082740;28;61985;-80
2021/12/15 03:39:31;;;;;;;;;49.25;35.25;;;;;15.34;71.43;102802.88;5081887;27;61771;-79
2021/12/15 03:42:02;;;;;;;;;42.75;37.00;;;;;15.31;71.08;102797.38;5081291;28;61996;-79
2021/12/15 03:44:32;;;;;;;;;47.75;34.75;;;;;15.34;70.81;102802.88;5080996;28;61914;-79
2021/12/15 03:46:59;;;;;;;;;43.50;33.75;;;;;15.28;69.70;102807.81;5082848;27;61665;-79
2021/12/15 03:49:25;;;;;;;;;39.75;32.75;;;;;15.22;69.95;102803.06;5081719;27;62009;-79
2021/12/15 03:51:50;;;;;;;;;47.50;32.50;;;;;15.25;70.63;102803.25;5082536;27;61742;-79
2021/12/15 03:54:17;;;;;;;;;40.50;33.50;;;;;15.29;70.76;102806.97;5082276;27;61720;-79
2021/12/15 03:56:44;;;;;;;;;46.00;31.75;;;;;15.32;71.03;102809.81;5080811;27;61841;-79
2021/12/15 03:59:10;;;;;;;;;35.75;31.00;;;;;15.32;70.90;102801.88;5076467;28;63648;-79
2021/12/15 04:01:37;;;;;;;;;47.25;36.00;;;;;15.32;70.92;102794.84;5098072;27;61746;-79
2021/12/15 04:04:03;;;;;;;;;39.25;28.00;;;;;15.37;70.90;102799.47;5082483;27;62033;-79
2021/12/15 04:06:32;;;;;;;;;45.25;34.50;;;;;15.37;70.36;102803.03;5082381;27;61849;-79
2021/12/15 04:08:59;;;;;;;;;53.25;36.00;;;;;15.38;70.88;102806.59;5081864;27;62114;-79
2021/12/15 04:11:27;;;;;;;;;45.25;36.00;;;;;15.38;71.02;102802.22;5082027;27;61799;-79
2021/12/15 04:13:59;;;;;;;;;47.25;28.75;;;;;15.38;70.31;102796.94;5082136;27;62278;-80
2021/12/15 04:19:04;;;;;;;;;39.00;30.00;;;;;15.33;71.16;102787.81;5081645;27;62620;-79
2021/12/15 04:21:30;;;;;;;;;32.75;26.75;;;;;15.37;70.25;102802.13;5080746;28;61801;-79
2021/12/15 04:23:57;;;;;;;;;33.75;26.25;;;;;15.38;70.03;102799.56;5082251;27;61805;-79
2021/12/15 04:26:24;;;;;;;;;30.50;26.25;;;;;15.36;69.51;102803.88;5080434;28;61867;-79
2021/12/15 04:28:50;;;;;;;;;41.00;29.25;;;;;15.36;69.68;102795.00;5081221;27;61759;-79
2021/12/15 04:31:19;;;;;;;;;35.50;29.25;;;;;15.36;69.95;102795.94;5097520;27;61825;-79
2021/12/15 04:33:55;;;;;;;;;39.50;34.25;;;;;15.36;69.90;102797.66;5081921;27;61952;-79
2021/12/15 04:36:24;;;;;;;;;43.25;34.50;;;;;15.32;70.01;102796.59;5082353;27;61844;-79
2021/12/15 04:38:50;;;;;;;;;32.50;27.50;;;;;15.33;69.82;102799.28;5084511;27;61776;-80
2021/12/15 04:41:19;;;;;;;;;44.25;36.75;;;;;15.33;69.55;102796.66;5083756;28;61788;-79
2021/12/15 04:43:55;;;;;;;;;46.75;36.75;;;;;15.36;69.88;102801.22;5085512;27;62163;-79
2021/12/15 04:46:20;;;;;;;;;34.75;30.25;;;;;15.32;69.40;102805.41;5084407;27;61858;-79
2021/12/15 04:48:45;;;;;;;;;38.00;35.25;;;;;15.20;69.53;102807.34;5084336;28;61956;-80
2021/12/15 04:51:11;;;;;;;;;34.50;28.50;;;;;15.24;70.33;102809.34;5084122;28;61887;-79
2021/12/15 04:53:37;;;;;;;;;31.25;28.00;;;;;15.29;69.87;102814.91;5085126;27;61829;-79
2021/12/15 04:56:05;;;;;;;;;37.75;33.75;;;;;15.16;69.74;102808.00;5100649;27;61731;-79
2021/12/15 04:58:31;;;;;;;;;38.50;34.50;;;;;15.17;69.72;102820.41;5080709;28;62078;-79
2021/12/15 05:01:00;;;;;;;;;33.00;28.75;;;;;15.22;70.08;102807.44;5083635;28;61924;-79
2021/12/15 05:03:25;;;;;;;;;37.00;33.25;;;;;15.29;70.43;102820.19;5085310;28;61939;-79
2021/12/15 05:05:51;;;;;;;;;33.00;31.00;;;;;15.27;69.44;102817.47;5085093;27;61907;-79
2021/12/15 05:08:17;;;;;;;;;39.75;28.75;;;;;15.24;69.40;102819.94;5100245;27;64655;-79
2021/12/15 05:10:43;;;;;;;;;35.50;29.75;;;;;15.14;69.68;102817.56;5083118;28;61866;-79
2021/12/15 05:13:10;;;;;;;;;35.50;31.75;;;;;15.19;70.24;102829.34;5085238;27;61745;-79
2021/12/15 05:15:36;;;;;;;;;27.25;21.00;;;;;15.23;69.94;102830.41;5083792;27;61824;-79
2021/12/15 05:18:03;;;;;;;;;40.25;30.50;;;;;15.17;69.34;102836.28;5082818;28;64632;-79
2021/12/15 05:20:29;;;;;;;;;36.75;27.00;;;;;15.15;69.45;102831.72;5083713;28;62652;-79
2021/12/15 05:22:55;;;;;;;;;35.25;31.00;;;;;15.19;69.60;102837.28;5084806;28;61798;-79
2021/12/15 05:25:21;;;;;;;;;33.50;27.25;;;;;15.11;69.58;102833.28;5084477;28;61858;-79
2021/12/15 05:27:47;;;;;;;;;28.50;24.75;;;;;15.12;70.01;102838.66;5084297;27;61788;-79
2021/12/15 05:30:16;;;;;;;;;35.50;29.75;;;;;15.11;70.04;102836.81;5100515;27;61783;-79
2021/12/15 05:32:42;;;;;;;;;27.50;26.50;;;;;15.12;69.69;102837.72;5084592;27;61884;-79
2021/12/15 05:35:10;;;;;;;;;34.50;31.75;;;;;15.16;69.58;102847.66;5085077;27;62109;-79
2021/12/15 05:37:36;;;;;;;;;35.75;28.25;;;;;15.17;70.35;102836.28;5084124;27;61910;-79
2021/12/15 05:40:02;;;;;;;;;39.75;27.00;;;;;15.21;70.03;102848.88;5082769;28;62048;-79
2021/12/15 05:42:28;;;;;;;;;35.25;23.50;;;;;15.24;69.71;102845.50;5084911;27;61931;-79
2021/12/15 05:44:55;;;;;;;;;37.50;27.00;;;;;15.19;69.21;102850.50;5083153;28;62093;-79
2021/12/15 05:47:21;;;;;;;;;27.50;27.25;;;;;15.15;69.07;102848.50;5084001;27;63175;-79
2021/12/15 05:49:48;;;;;;;;;37.25;28.50;;;;;15.13;69.47;102851.06;5083124;27;61937;-79
2021/12/15 05:52:14;;;;;;;;;38.75;32.25;;;;;15.18;69.93;102855.72;5084557;27;61722;-79
2021/12/15 05:54:40;;;;;;;;;41.50;25.50;;;;;15.22;69.59;102863.91;5100012;27;62154;-79
2021/12/15 05:57:06;;;;;;;;;32.75;24.25;;;;;15.20;69.83;102849.69;5082270;28;62696;-79
2021/12/15 05:59:32;;;;;;;;;31.75;27.50;;;;;15.23;70.23;102857.81;5080521;28;61809;-79
2021/12/15 06:01:58;;;;;;;;;26.25;24.50;;;;;15.21;69.74;102851.53;5082771;27;61870;-79
2021/12/15 06:04:24;;;;;;;;;38.25;33.00;;;;;15.26;69.05;102855.34;5084555;27;61952;-79
2021/12/15 06:06:49;;;;;;;;;34.50;29.00;;;;;15.24;69.87;102849.03;5082106;28;63627;-79
2021/12/15 06:09:15;;;;;;;;;42.25;30.00;;;;;15.30;69.92;102861.72;5082365;28;61838;-79
2021/12/15 06:11:43;;;;;;;;;30.50;29.00;;;;;15.31;69.76;102866.19;5082844;28;61791;-79
2021/12/15 06:14:09;;;;;;;;;36.00;30.00;;;;;15.27;69.84;102867.72;5082489;27;61931;-79
2021/12/15 06:16:36;;;;;;;;;29.75;28.50;;;;;15.29;69.56;102876.66;5082132;28;63615;-79
2021/12/15 06:19:04;;;;;;;;;41.00;30.00;;;;;15.30;69.65;102878.50;5099547;27;61753;-77
2021/12/15 06:21:31;;;;;;;;;40.75;30.25;;;;;15.30;70.06;102881.16;5084112;27;61947;-77
2021/12/15 06:23:57;;;;;;;;;39.00;33.00;;;;;15.32;70.05;102882.16;5083659;27;61710;-78
2021/12/15 06:26:22;;;;;;;;;38.50;33.50;;;;;15.31;69.99;102875.03;5081644;28;64863;-78
2021/12/15 06:28:48;;;;;;;;;50.75;40.00;;;;;15.32;69.17;102884.81;5081377;27;61777;-78
2021/12/15 06:31:16;;;;;;;;;45.50;40.00;;;;;15.35;69.63;102886.72;5061185;28;62104;-78
2021/12/15 06:33:44;;;;;;;;;55.75;38.00;;;;;15.32;69.47;102887.44;5063007;28;61791;-78
2021/12/15 06:36:13;;;;;;;;;46.00;38.50;;;;;15.33;69.42;102893.66;5062513;28;62694;-79
2021/12/15 06:38:42;;;;;;;;;43.00;34.00;;;;;15.34;69.25;102884.91;5063056;28;62017;-78
2021/12/15 06:41:12;;;;;;;;;32.75;28.50;;;;;15.36;68.87;102888.56;5055669;28;62171;-79
2021/12/15 06:43:39;;;;;;;;;38.25;32.75;;;;;15.36;69.24;102890.25;5058207;28;61826;-79
2021/12/15 06:46:28;;;;;;;;;39.75;33.00;;;;;15.35;69.65;102897.28;5060464;28;63057;-79
2021/12/15 06:59:48;;;;;;;;;46.25;33.50;;;;;15.33;69.55;102905.13;5082588;28;61824;-78
2021/12/15 07:02:14;;;;;;;;;51.25;36.25;;;;;15.36;69.38;102903.50;5083020;27;61687;-78
2021/12/15 07:04:40;;;;;;;;;43.00;35.25;;;;;15.36;69.37;102909.72;5081908;28;61956;-78
2021/12/15 07:07:05;;;;;;;;;38.50;34.25;;;;;15.38;69.21;102908.09;5080743;28;64742;-78
2021/12/15 07:09:33;;;;;;;;;35.75;29.50;;;;;15.40;68.99;102908.16;5082553;27;61916;-78
2021/12/15 07:12:00;;;;;;;;;41.00;31.75;;;;;15.27;68.59;102901.22;5082699;27;61921;-78
2021/12/15 07:14:25;;;;;;;;;38.50;30.00;;;;;15.28;68.68;102905.72;5081736;28;61737;-78
2021/12/15 07:16:54;;;;;;;;;30.50;30.00;;;;;15.30;69.30;102906.72;5082228;27;61865;-78
2021/12/15 07:19:32;;;;;;;;;44.00;34.50;;;;;15.34;69.17;102919.31;5081208;27;62092;-78
2021/12/15 07:22:31;;;;;;;;;40.00;39.00;;;;;15.37;69.08;102919.47;5078886;27;61810;-78
2021/12/15 07:24:58;;;;;;;;;45.00;37.00;;;;;15.39;69.80;102925.78;5061435;28;62192;-78
2021/12/15 07:27:24;;;;;;;;;44.25;34.75;;;;;15.37;68.93;102922.13;5061736;28;61906;-78
2021/12/15 07:29:50;;;;;;;;;47.25;36.50;;;;;15.34;69.01;102930.78;5062415;28;61986;-78
2021/12/15 07:32:15;;;;;;;;;38.75;29.50;;;;;15.35;69.91;102929.06;5062235;28;62054;-78
2021/12/15 07:34:41;;;;;;;;;40.00;33.75;;;;;15.34;69.38;102928.16;5062407;28;61815;-78
2021/12/15 07:37:06;;;;;;;;;40.25;34.25;;;;;15.39;69.31;102935.44;5060161;28;63710;-78
2021/12/15 07:39:32;;;;;;;;;43.50;35.00;;;;;15.38;69.12;102937.19;5061318;28;61941;-78
2021/12/15 07:42:10;;;;;;;;;35.00;32.25;;;;;15.40;69.14;102947.84;5057410;28;62090;-79
2021/12/15 07:44:37;;;;;;;;;40.25;33.25;;;;;15.40;69.04;102945.19;5059081;28;61930;-79
2021/12/15 07:47:04;;;;;;;;;34.25;27.00;;;;;15.40;69.24;102939.91;5061044;28;62001;-78
2021/12/15 07:49:30;;;;;;;;;40.50;27.50;;;;;15.38;69.01;102945.13;5056612;28;62121;-79
2021/12/15 07:52:01;;;;;;;;;30.50;29.75;;;;;15.41;69.62;102947.94;5059787;28;61859;-78
2021/12/15 07:54:37;;;;;;;;;36.50;30.50;;;;;15.42;69.59;102948.84;5061094;28;61775;-78
2021/12/15 07:57:07;;;;;;;;;30.25;24.75;;;;;15.43;68.86;102948.94;5060442;28;61889;-77
2021/12/15 07:59:33;;;;;;;;;40.50;28.00;;;;;15.42;69.08;102955.03;5060885;28;61763;-78
2021/12/15 08:02:00;;;;;;;;;24.00;20.50;;;;;15.44;69.24;102955.16;5061708;28;61796;-78
2021/12/15 08:04:28;;;;;;;;;23.50;13.50;;;;;15.43;68.72;102955.97;5062052;28;61657;-78
2021/12/15 08:06:54;;;;;;;;;16.50;14.75;;;;;15.40;67.69;102961.97;5059422;28;64283;-78
2021/12/15 08:09:20;;;;;;;;;16.25;13.75;;;;;15.40;68.86;102956.69;5060179;28;61794;-78
2021/12/15 08:11:46;;;;;;;;;21.25;15.00;;;;;15.44;68.68;102957.78;5061351;28;62415;-77
2021/12/15 08:14:11;;;;;;;;;18.50;12.00;;;;;15.37;67.38;102952.97;5058215;28;62036;-78
2021/12/15 08:16:38;;;;;;;;;22.25;14.50;;;;;15.38;68.46;102963.66;5056477;28;63512;-78
2021/12/15 08:19:04;;;;;;;;;15.00;11.50;;;;;15.40;67.74;102963.72;5044099;28;62124;-79
2021/12/15 08:21:30;;;;;;;;;16.25;14.75;;;;;15.42;68.25;102965.63;5053108;28;62059;-78
2021/12/15 08:23:56;;;;;;;;;17.00;13.50;;;;;15.50;68.16;102960.81;5049487;28;61946;-80
2021/12/15 08:26:23;;;;;;;;;19.00;15.00;;;;;15.53;68.38;102963.63;5046883;28;63689;-80
2021/12/15 08:28:49;;;;;;;;;25.50;19.00;;;;;15.58;68.73;102963.91;5050170;28;62034;-79
2021/12/15 08:31:14;;;;;;;;;18.50;17.50;;;;;15.58;68.22;102967.47;5053778;28;61894;-79
2021/12/15 08:33:40;;;;;;;;;21.50;17.00;;;;;15.64;67.68;102972.19;5061222;28;61817;-81
2021/12/15 08:36:09;;;;;;;;;24.25;18.25;;;;;15.65;68.20;102966.09;5060896;28;61723;-78
2021/12/15 08:38:38;;;;;;;;;21.75;17.50;;;;;15.70;67.87;102976.16;5057596;28;61834;-79
2021/12/15 08:41:08;;;;;;;;;16.25;15.75;;;;;15.72;68.10;102968.31;5051305;28;61942;-76
2021/12/15 08:43:35;;;;;;;;;20.75;18.25;;;;;15.75;68.02;102968.50;5047794;28;61940;-77
2021/12/15 08:46:16;;;;;;;;;28.75;26.00;;;;;15.77;67.28;102974.81;5060904;28;62702;-76
2021/12/15 08:48:43;;;;;;;;;23.75;19.00;;;;;15.72;67.39;102968.31;5061086;28;62563;-77
2021/12/15 08:51:12;;;;;;;;;24.75;20.75;;;;;15.76;68.51;102974.69;5061647;28;61986;-77
2021/12/15 08:53:41;;;;;;;;;35.00;26.00;;;;;15.76;68.36;102966.75;5061432;28;61945;-76
2021/12/15 08:56:07;;;;;;;;;30.50;27.00;;;;;15.80;68.45;102974.06;5060309;28;61848;-76
2021/12/15 08:58:32;;;;;;;;;22.00;16.75;;;;;15.82;68.64;102973.31;5067344;28;61909;-75
2021/12/15 09:01:00;;;;;;;;;22.00;18.25;;;;;15.88;68.47;102975.44;5081503;27;61786;-77
2021/12/15 09:03:26;;;;;;;;;21.75;18.50;;;;;15.85;67.58;102976.16;5081392;28;61704;-77
2021/12/15 09:05:55;;;;;;;;;15.50;15.00;;;;;15.83;67.37;102979.53;5080951;27;62240;-76
2021/12/15 09:08:24;;;;;;;;;15.50;11.00;;;;;15.82;67.57;102977.72;5081370;27;61934;-77
2021/12/15 09:10:51;;;;;;;;;17.50;12.75;;;;;15.81;67.60;102975.88;5081466;27;61984;-77
2021/12/15 09:13:16;;;;;;;;;17.00;14.00;;;;;15.85;67.68;102975.22;5081531;27;62079;-78
2021/12/15 09:15:42;;;;;;;;;18.50;12.00;;;;;15.88;67.43;102989.56;5061815;27;62772;-75
2021/12/15 09:18:10;;;;;;;;;14.50;13.00;;;;;15.90;67.78;102990.56;5060419;28;61835;-76
2021/12/15 09:20:37;;;;;;;;;10.75;10.75;;;;;15.93;67.68;102988.09;5060256;28;61883;-77
2021/12/15 09:23:08;;;;;;;;;18.00;14.00;;;;;16.05;68.01;102994.94;5073202;28;61898;-81
2021/12/15 09:25:34;;;;;;;;;18.50;17.75;;;;;16.12;67.21;102987.41;5062825;28;61931;-84
2021/12/15 09:28:00;;;;;;;;;15.25;13.00;;;;;16.21;66.88;102989.66;5061943;28;61988;-80
2021/12/15 09:30:28;;;;;;;;;18.50;16.00;;;;;16.23;66.68;102995.06;5063622;28;62096;-81
2021/12/15 09:32:54;;;;;;;;;17.25;14.50;;;;;16.24;67.05;102995.16;5063149;28;61826;-77
2021/12/15 09:35:22;;;;;;;;;21.75;19.25;;;;;16.29;66.74;102995.41;5062028;28;62726;-77
2021/12/15 09:37:48;;;;;;;;;22.25;17.50;;;;;16.30;67.13;102990.22;5063215;28;61852;-79
2021/12/15 09:40:17;;;;;;;;;22.50;13.00;;;;;16.33;66.48;102997.41;5074839;28;61786;-77
2021/12/15 09:42:43;;;;;;;;;21.50;17.00;;;;;16.32;67.08;102985.91;5043739;28;61837;-79
2021/12/15 09:45:26;;;;;;;;;29.25;19.75;;;;;16.36;66.63;102994.94;5043031;28;62585;-79
2021/12/15 10:04:19;;;;;;;;;23.75;18.50;;;;;16.35;67.07;102990.47;5083650;28;61800;-75
2021/12/15 10:18:13;;;;;;;;;24.00;15.75;;;;;16.47;66.11;102995.53;5061173;28;62174;-75
2021/12/15 10:20:40;;;;;;;;;18.75;17.50;;;;;16.47;66.15;102995.53;5062869;28;62104;-75
2021/12/15 10:23:13;;;;;;;;;18.25;15.50;;;;;16.46;66.02;102999.91;5063305;28;61954;-79
2021/12/15 10:25:49;;;;;;;;;22.50;18.00;;;;;16.44;65.84;102998.91;5062871;28;61948;-76
2021/12/15 10:28:22;;;;;;;;;15.00;14.25;;;;;16.46;66.18;102991.97;5061832;28;61923;-79
2021/12/15 10:31:02;;;;;;;;;21.25;17.00;;;;;16.55;66.63;103005.72;5062926;28;61874;-76
2021/12/15 10:33:37;;;;;;;;;23.50;18.75;;;;;16.63;66.67;102997.31;5063054;28;62052;-77
2021/12/15 10:36:19;;;;;;;;;15.25;12.00;;;;;16.64;66.14;102991.16;5056414;28;61800;-76
2021/12/15 10:38:52;;;;;;;;;17.50;14.50;;;;;16.67;66.05;102996.66;5060769;28;62852;-76
2021/12/15 10:41:26;;;;;;;;;11.75;11.75;;;;;16.66;65.39;102995.72;5068509;28;61875;-76
2021/12/15 10:43:54;;;;;;;;;18.25;13.75;;;;;16.66;65.34;102992.16;5052136;28;61912;-76
2021/12/15 10:46:23;;;;;;;;;16.25;13.25;;;;;16.69;65.63;102997.66;5051217;28;61977;-76
2021/12/15 10:48:51;;;;;;;;;14.00;14.00;;;;;16.70;65.42;102989.75;5052178;28;61909;-81
2021/12/15 10:51:27;;;;;;;;;8.75;8.50;;;;;16.67;65.57;102979.00;5051006;28;62066;-79
2021/12/15 10:53:55;;;;;;;;;11.00;9.00;;;;;16.75;65.54;102990.94;5052153;28;61866;-83
2021/12/15 10:56:25;;;;;;;;;9.50;7.50;;;;;16.76;65.22;102979.47;5050654;28;61998;-88
2021/12/15 10:58:54;;;;;;;;;11.00;9.75;;;;;16.80;65.19;102992.94;5060330;28;64011;-76
2021/12/15 11:01:35;;;;;;;;;11.25;8.25;;;;;16.81;65.11;102995.69;5062740;28;62180;-77
2021/12/15 11:04:18;;;;;;;;;8.50;7.75;;;;;16.80;64.90;102983.25;5064652;28;61994;-75
2021/12/15 11:06:44;;;;;;;;;14.25;7.75;;;;;16.82;64.79;102984.25;5060946;28;61924;-76
2021/12/15 11:09:21;;;;;;;;;10.75;8.25;;;;;16.83;65.26;102983.41;5060404;28;64012;-75
2021/12/15 11:12:27;;;;;;;;;14.00;12.00;;;;;16.82;65.95;102986.00;5062424;28;62087;-76
2021/12/15 11:15:03;;;;;;;;;5.75;5.75;;;;;16.71;63.96;102990.66;5055272;28;61882;-76
2021/12/15 11:17:34;;;;;;;;;12.00;9.25;;;;;16.70;64.51;102984.44;5060972;28;61760;-76
2021/12/15 11:20:06;;;;;;;;;7.00;7.00;;;;;16.73;65.30;102987.28;5061770;28;61936;-76
2021/12/15 11:22:34;;;;;;;;;11.25;9.00;;;;;16.75;65.93;102977.66;5060419;28;61892;-76
2021/12/15 11:25:01;;;;;;;;;23.75;13.75;;;;;16.74;64.71;102978.47;5059781;28;61950;-77
2021/12/15 11:27:27;;;;;;;;;14.75;9.00;;;;;16.66;64.59;102974.50;5059990;28;61851;-76
2021/12/15 11:29:53;;;;;;;;;15.75;11.00;;;;;16.56;64.59;102975.75;5061373;28;61897;-75
2021/12/15 11:32:39;;;;;;;;;18.50;13.00;;;;;16.54;64.84;102974.75;5060895;28;61746;-76
2021/12/15 11:35:15;;;;;;;;;12.75;9.25;;;;;16.52;65.52;102971.09;5061083;28;61808;-76
2021/12/15 11:38:00;;;;;;;;;14.50;11.75;;;;;16.59;65.24;102971.44;5062551;28;61924;-76
2021/12/15 11:40:31;;;;;;;;;17.25;13.75;;;;;16.66;65.51;102969.19;5061553;28;62790;-77
2021/12/15 11:42:58;;;;;;;;;11.00;11.00;;;;;16.73;65.52;102966.06;5061029;28;61779;-76
2021/12/15 11:45:25;;;;;;;;;18.75;12.25;;;;;16.74;65.03;102967.88;5061516;28;62011;-76
2021/12/15 11:47:50;;;;;;;;;13.25;12.50;;;;;16.75;64.45;102961.75;5057298;28;61957;-76
2021/12/15 11:50:20;;;;;;;;;23.00;15.50;;;;;16.76;64.75;102960.00;5058142;28;62506;-76
2021/12/15 11:52:49;;;;;;;;;16.25;14.25;;;;;16.77;64.50;102961.81;5058524;28;61771;-76
2021/12/15 11:55:40;;;;;;;;;14.50;13.00;;;;;16.77;65.20;102959.16;5059668;28;62045;-76
2021/12/15 11:58:07;;;;;;;;;19.75;15.25;;;;;16.82;65.39;102963.03;5059073;28;61738;-76
2021/12/15 12:00:32;;;;;;;;;13.00;11.75;;;;;16.86;64.75;102966.75;5059421;28;63782;-76
2021/12/15 12:02:58;;;;;;;;;14.75;9.75;;;;;16.88;65.27;102957.13;5061201;28;62000;-76
2021/12/15 12:05:29;;;;;;;;;11.75;9.25;;;;;16.92;64.32;102954.75;5059681;28;61787;-76
2021/12/15 12:08:00;;;;;;;;;14.50;9.50;;;;;16.94;63.62;102957.47;5061238;28;61769;-76
2021/12/15 12:10:44;;;;;;;;;14.75;9.75;;;;;16.93;64.11;102953.00;5057947;28;62927;-76
2021/12/15 12:13:15;;;;;;;;;18.00;11.00;;;;;16.90;63.81;102959.06;5060983;28;62048;-76
2021/12/15 12:15:44;;;;;;;;;23.25;15.75;;;;;16.90;63.80;102947.50;5046212;28;61891;-76
2021/12/15 12:18:20;;;;;;;;;21.00;18.75;;;;;16.89;64.42;102951.91;5061448;28;61838;-76
2021/12/15 12:20:55;;;;;;;;;24.50;22.75;;;;;16.92;64.81;102946.78;5061010;28;61926;-76
2021/12/15 12:23:25;;;;;;;;;29.00;20.00;;;;;16.97;65.14;102952.34;5060919;28;61745;-76
2021/12/15 12:25:55;;;;;;;;;9.25;8.00;;;;;16.91;63.52;102947.59;5059399;28;62077;-76
2021/12/15 12:28:26;;;;;;;;;7.00;5.50;;;;;16.79;63.24;102952.22;5059460;28;61831;-76
2021/12/15 12:30:56;;;;;;;;;10.00;8.00;;;;;16.65;63.62;102932.91;5060520;28;62834;-76
2021/12/15 12:33:24;;;;;;;;;13.50;9.25;;;;;16.70;64.08;102949.06;5057487;28;61878;-76